Time;durP1;ratioP1;P1;durP2;ratioP2;P2;SDS_P1;SDS_P2;PMS_P1;PMS_P2;Temp;Humidity;BMP_temperature;BMP_pressure;BME280_temperature;BME280_humidity;BME280_pressure;Samples;Min_cycle;Max_cycle;Signal;HPM_P1;HPM_P2
2022/04/23 00:00:51;;;;;;;15.80;13.65;;;;;;;;;;5065765;28;20044;-71
2022/04/23 00:03:17;;;;;;;16.55;14.32;;;;;;;;;;5045608;28;20049;-72
2022/04/23 00:05:44;;;;;;;19.65;14.27;;;;;;;;;;5045774;28;20037;-73
2022/04/23 00:08:10;;;;;;;17.45;14.38;;;;;;;;;;5045053;28;20037;-72
2022/04/23 00:10:36;;;;;;;16.75;14.10;;;;;;;;;;5063617;28;20052;-73
2022/04/23 00:13:03;;;;;;;15.52;13.60;;;;;;;;;;5044852;28;20414;-72
2022/04/23 00:15:36;;;;;;;17.10;13.50;;;;;;;;;;5061872;28;20486;-72
2022/04/23 00:18:03;;;;;;;17.35;14.38;;;;;;;;;;5059062;28;20049;-72
2022/04/23 00:20:30;;;;;;;16.88;14.05;;;;;;;;;;5057166;28;20046;-73
2022/04/23 00:22:56;;;;;;;15.93;14.23;;;;;;;;;;5036847;28;20045;-72
2022/04/23 00:25:22;;;;;;;18.75;14.30;;;;;;;;;;5060582;28;20037;-72
2022/04/23 00:27:48;;;;;;;17.80;14.38;;;;;;;;;;5060011;28;20040;-72
2022/04/23 00:30:14;;;;;;;16.30;13.73;;;;;;;;;;5037472;28;20049;-72
2022/04/23 00:32:40;;;;;;;16.92;14.05;;;;;;;;;;5063972;28;20052;-72
2022/04/23 00:35:06;;;;;;;15.65;13.93;;;;;;;;;;5062761;28;20071;-72
2022/04/23 00:37:33;;;;;;;17.35;13.93;;;;;;;;;;5046454;28;20507;-72
2022/04/23 00:39:59;;;;;;;17.15;13.93;;;;;;;;;;5065682;28;20087;-72
2022/04/23 00:42:25;;;;;;;17.10;14.07;;;;;;;;;;5068361;28;20045;-72
2022/04/23 00:44:51;;;;;;;17.58;14.45;;;;;;;;;;5065870;28;20575;-72
2022/04/23 00:47:22;;;;;;;18.25;14.10;;;;;;;;;;5068937;28;20055;-72
2022/04/23 00:49:48;;;;;;;17.92;13.13;;;;;;;;;;5066607;28;20083;-72
2022/04/23 00:52:14;;;;;;;15.40;13.38;;;;;;;;;;5034875;28;20097;-73
2022/04/23 00:54:41;;;;;;;15.70;13.35;;;;;;;;;;5057628;28;20083;-72
2022/04/23 00:57:07;;;;;;;16.05;13.82;;;;;;;;;;5066918;28;20101;-72
2022/04/23 00:59:33;;;;;;;14.93;12.70;;;;;;;;;;5064526;28;20051;-72
2022/04/23 01:02:02;;;;;;;18.52;13.77;;;;;;;;;;5066742;28;20045;-72
2022/04/23 01:04:30;;;;;;;16.75;13.05;;;;;;;;;;5063828;28;20045;-72
2022/04/23 01:06:57;;;;;;;16.17;13.15;;;;;;;;;;5064298;28;20049;-73
2022/04/23 01:09:23;;;;;;;15.25;12.85;;;;;;;;;;5065648;28;20123;-71
2022/04/23 01:11:49;;;;;;;15.40;12.68;;;;;;;;;;5065610;28;20044;-73
2022/04/23 01:14:18;;;;;;;15.50;12.15;;;;;;;;;;5064538;28;20037;-73
2022/04/23 01:16:44;;;;;;;16.08;12.55;;;;;;;;;;5048133;28;20134;-72
2022/04/23 01:19:09;;;;;;;15.18;12.50;;;;;;;;;;5064768;28;20037;-73
2022/04/23 01:21:35;;;;;;;14.55;12.27;;;;;;;;;;5068716;28;20037;-72
2022/04/23 01:24:02;;;;;;;15.35;11.85;;;;;;;;;;5064075;28;20068;-72
2022/04/23 01:26:31;;;;;;;12.98;11.57;;;;;;;;;;5059060;28;20045;-73
2022/04/23 01:28:58;;;;;;;16.08;11.65;;;;;;;;;;5065746;28;20045;-72
2022/04/23 01:31:25;;;;;;;14.43;12.05;;;;;;;;;;5064249;28;20060;-73
2022/04/23 01:33:51;;;;;;;14.73;11.50;;;;;;;;;;5063502;28;20449;-72
2022/04/23 01:36:17;;;;;;;14.35;11.50;;;;;;;;;;5044938;28;20048;-71
2022/04/23 01:38:43;;;;;;;17.17;11.35;;;;;;;;;;5063500;28;20033;-72
2022/04/23 01:41:09;;;;;;;16.95;10.43;;;;;;;;;;5063851;28;20041;-72
2022/04/23 01:43:35;;;;;;;16.38;11.13;;;;;;;;;;5067341;28;20419;-72
2022/04/23 01:46:01;;;;;;;14.60;11.07;;;;;;;;;;5064169;28;20041;-72
2022/04/23 01:48:27;;;;;;;16.13;11.82;;;;;;;;;;5065743;28;20044;-72
2022/04/23 01:50:55;;;;;;;14.65;10.45;;;;;;;;;;5061985;28;20055;-72
2022/04/23 01:53:22;;;;;;;14.05;10.90;;;;;;;;;;5049874;28;20079;-72
2022/04/23 01:55:50;;;;;;;16.30;11.18;;;;;;;;;;5064024;28;20052;-72
2022/04/23 01:58:16;;;;;;;14.80;10.48;;;;;;;;;;5065196;28;20833;-72
2022/04/23 02:00:44;;;;;;;17.25;11.25;;;;;;;;;;5053416;28;20041;-72
2022/04/23 02:03:10;;;;;;;15.55;11.13;;;;;;;;;;5063496;28;20048;-72
2022/04/23 02:05:37;;;;;;;14.25;10.68;;;;;;;;;;5059625;28;20067;-73
2022/04/23 02:08:03;;;;;;;15.35;11.30;;;;;;;;;;5059935;28;20052;-73
2022/04/23 02:10:29;;;;;;;16.40;12.00;;;;;;;;;;5061241;28;20037;-72
2022/04/23 02:12:55;;;;;;;13.85;11.15;;;;;;;;;;5036846;28;20065;-72
2022/04/23 02:15:22;;;;;;;14.30;11.20;;;;;;;;;;5063187;28;20497;-72
2022/04/23 02:17:49;;;;;;;17.30;11.98;;;;;;;;;;5045900;28;20072;-72
2022/04/23 02:20:16;;;;;;;14.52;11.73;;;;;;;;;;5064481;28;20047;-72
2022/04/23 02:22:42;;;;;;;14.77;11.65;;;;;;;;;;5062306;28;20037;-72
2022/04/23 02:25:08;;;;;;;19.15;12.38;;;;;;;;;;5064504;28;20407;-72
2022/04/23 02:27:44;;;;;;;17.13;12.15;;;;;;;;;;5064148;28;20041;-72
2022/04/23 02:30:13;;;;;;;14.43;11.98;;;;;;;;;;5064911;28;20060;-72
2022/04/23 02:32:39;;;;;;;13.52;12.02;;;;;;;;;;5064423;28;20064;-73
2022/04/23 02:35:06;;;;;;;15.82;12.13;;;;;;;;;;5048322;28;20108;-72
2022/04/23 02:37:35;;;;;;;15.13;11.93;;;;;;;;;;5060942;28;20033;-72
2022/04/23 02:40:04;;;;;;;16.67;11.25;;;;;;;;;;5065395;28;20127;-73
2022/04/23 02:42:30;;;;;;;15.63;12.25;;;;;;;;;;5064974;28;20037;-71
2022/04/23 02:45:01;;;;;;;17.08;12.88;;;;;;;;;;5065961;28;20053;-73
2022/04/23 02:47:30;;;;;;;17.77;12.30;;;;;;;;;;5066106;28;20080;-72
2022/04/23 02:49:56;;;;;;;16.00;12.00;;;;;;;;;;5047960;28;20072;-72
2022/04/23 02:52:23;;;;;;;16.13;12.25;;;;;;;;;;5061245;28;20044;-73
2022/04/23 02:54:50;;;;;;;16.85;12.27;;;;;;;;;;5062656;28;20047;-73
2022/04/23 02:57:16;;;;;;;17.15;12.40;;;;;;;;;;5065423;28;20076;-73
2022/04/23 02:59:42;;;;;;;17.73;12.98;;;;;;;;;;5060943;28;20051;-73
2022/04/23 03:02:08;;;;;;;14.07;11.05;;;;;;;;;;5060640;28;20144;-72
2022/04/23 03:04:34;;;;;;;16.23;12.32;;;;;;;;;;5063488;28;20045;-72
2022/04/23 03:07:02;;;;;;;15.40;11.52;;;;;;;;;;5051029;28;20053;-73
2022/04/23 03:09:28;;;;;;;15.60;11.90;;;;;;;;;;5063814;28;20459;-72
2022/04/23 03:11:54;;;;;;;16.15;12.82;;;;;;;;;;5066993;28;20049;-71
2022/04/23 03:14:20;;;;;;;14.95;11.40;;;;;;;;;;5065920;28;20048;-72
2022/04/23 03:16:46;;;;;;;15.25;11.77;;;;;;;;;;5049233;28;20399;-72
2022/04/23 03:19:12;;;;;;;16.30;12.40;;;;;;;;;;5066383;28;20045;-72
2022/04/23 03:21:38;;;;;;;14.90;11.60;;;;;;;;;;5068015;28;20041;-73
2022/04/23 03:24:05;;;;;;;14.77;11.60;;;;;;;;;;5065369;28;20045;-72
2022/04/23 03:26:31;;;;;;;15.50;11.35;;;;;;;;;;5063690;28;20072;-72
2022/04/23 03:28:57;;;;;;;15.48;11.65;;;;;;;;;;5066548;28;20045;-72
2022/04/23 03:31:23;;;;;;;16.42;11.07;;;;;;;;;;5066050;28;20064;-72
2022/04/23 03:33:49;;;;;;;17.38;11.68;;;;;;;;;;5062450;28;20037;-72
2022/04/23 03:36:16;;;;;;;15.05;12.20;;;;;;;;;;5064099;28;20131;-72
2022/04/23 03:38:43;;;;;;;15.48;11.73;;;;;;;;;;5061454;28;20045;-72
2022/04/23 03:41:09;;;;;;;15.75;11.43;;;;;;;;;;5060791;28;20044;-72
2022/04/23 03:43:35;;;;;;;17.80;11.48;;;;;;;;;;5059746;28;20037;-73
2022/04/23 03:46:01;;;;;;;15.10;11.57;;;;;;;;;;5063902;28;20075;-72
2022/04/23 03:48:27;;;;;;;14.18;11.45;;;;;;;;;;5065357;28;20041;-73
2022/04/23 03:50:53;;;;;;;15.70;11.52;;;;;;;;;;5066232;28;20111;-72
2022/04/23 03:53:19;;;;;;;13.15;11.50;;;;;;;;;;5060063;28;20044;-72
2022/04/23 03:55:45;;;;;;;12.75;11.23;;;;;;;;;;5047178;28;20049;-72
2022/04/23 03:58:12;;;;;;;13.95;10.43;;;;;;;;;;5062852;28;20049;-72
2022/04/23 04:00:38;;;;;;;14.60;11.35;;;;;;;;;;5062633;28;20059;-72
2022/04/23 04:03:04;;;;;;;16.00;11.50;;;;;;;;;;5045595;28;20042;-73
2022/04/23 04:05:31;;;;;;;14.80;11.25;;;;;;;;;;5066240;28;20063;-73
2022/04/23 04:07:57;;;;;;;13.95;11.32;;;;;;;;;;5061987;28;20053;-73
2022/04/23 04:10:24;;;;;;;12.90;10.35;;;;;;;;;;5059661;28;20041;-71
2022/04/23 04:12:52;;;;;;;11.95;10.27;;;;;;;;;;5053379;28;20048;-71
2022/04/23 04:15:20;;;;;;;13.65;10.77;;;;;;;;;;5067501;28;20059;-72
2022/04/23 04:17:48;;;;;;;14.23;10.63;;;;;;;;;;5066846;28;20052;-72
2022/04/23 04:20:14;;;;;;;13.63;11.00;;;;;;;;;;5067424;28;20095;-72
2022/04/23 04:22:40;;;;;;;14.27;11.00;;;;;;;;;;5063207;28;20040;-73
2022/04/23 04:25:07;;;;;;;13.25;10.38;;;;;;;;;;5039840;28;20110;-71
2022/04/23 04:27:34;;;;;;;14.40;11.15;;;;;;;;;;5065751;28;20037;-72
2022/04/23 04:30:01;;;;;;;12.57;10.55;;;;;;;;;;5066732;28;20490;-72
2022/04/23 04:32:27;;;;;;;12.68;10.85;;;;;;;;;;5066334;28;20041;-73
2022/04/23 04:34:53;;;;;;;15.02;12.38;;;;;;;;;;5059341;28;20052;-72
2022/04/23 04:37:19;;;;;;;14.77;12.43;;;;;;;;;;5067410;28;20056;-73
2022/04/23 04:39:45;;;;;;;14.20;12.07;;;;;;;;;;5056811;28;20048;-72
2022/04/23 04:42:12;;;;;;;14.57;11.10;;;;;;;;;;5056948;28;20053;-72
2022/04/23 04:44:38;;;;;;;14.25;10.48;;;;;;;;;;5045967;28;20080;-72
2022/04/23 04:47:04;;;;;;;12.48;10.43;;;;;;;;;;5069169;28;20128;-72
2022/04/23 04:49:31;;;;;;;12.90;11.18;;;;;;;;;;5051235;28;20045;-73
2022/04/23 04:51:57;;;;;;;13.00;11.50;;;;;;;;;;5071227;28;20041;-72
2022/04/23 04:54:23;;;;;;;13.57;10.27;;;;;;;;;;5060244;28;20122;-72
2022/04/23 04:56:49;;;;;;;12.57;10.63;;;;;;;;;;5063529;28;20083;-74
2022/04/23 04:59:16;;;;;;;14.98;11.88;;;;;;;;;;5060675;28;20110;-72
2022/04/23 05:01:42;;;;;;;13.23;11.10;;;;;;;;;;5043365;28;20044;-73
2022/04/23 05:04:08;;;;;;;12.23;10.85;;;;;;;;;;5061626;28;20053;-73
2022/04/23 05:06:34;;;;;;;12.48;11.15;;;;;;;;;;5061152;28;20048;-72
2022/04/23 05:09:00;;;;;;;12.80;10.07;;;;;;;;;;5057389;28;20509;-72
2022/04/23 05:11:26;;;;;;;12.20;9.40;;;;;;;;;;5048027;28;20044;-73
2022/04/23 05:13:52;;;;;;;12.90;11.07;;;;;;;;;;5061104;28;20056;-72
2022/04/23 05:16:18;;;;;;;11.93;10.68;;;;;;;;;;5067299;28;21262;-71
2022/04/23 05:18:44;;;;;;;12.65;11.05;;;;;;;;;;5069207;28;20048;-73
2022/04/23 05:21:11;;;;;;;15.30;10.70;;;;;;;;;;5068469;28;20056;-72
2022/04/23 05:23:37;;;;;;;13.60;10.90;;;;;;;;;;5070487;28;20352;-74
2022/04/23 05:26:04;;;;;;;11.73;10.10;;;;;;;;;;5049466;28;20041;-73
2022/04/23 05:28:34;;;;;;;12.60;10.95;;;;;;;;;;5069191;28;20033;-72
2022/04/23 05:31:00;;;;;;;14.75;10.88;;;;;;;;;;5067591;28;20049;-73
2022/04/23 05:33:40;;;;;;;13.20;10.93;;;;;;;;;;5166420;27;20123;-72
2022/04/23 05:36:06;;;;;;;12.75;10.68;;;;;;;;;;5143797;27;20098;-73
2022/04/23 05:38:34;;;;;;;12.50;10.40;;;;;;;;;;5144850;27;20035;-72
2022/04/23 05:41:01;;;;;;;11.95;10.55;;;;;;;;;;5143570;28;20047;-73
2022/04/23 05:43:27;;;;;;;13.63;10.88;;;;;;;;;;5136942;28;20051;-73
2022/04/23 05:45:56;;;;;;;12.50;10.88;;;;;;;;;;5141950;28;20043;-73
2022/04/23 05:48:22;;;;;;;13.43;11.32;;;;;;;;;;5142320;28;20140;-73
2022/04/23 05:50:48;;;;;;;13.85;10.77;;;;;;;;;;5143534;28;20039;-73
2022/04/23 05:53:14;;;;;;;12.10;10.80;;;;;;;;;;5140081;28;20095;-72
2022/04/23 05:55:40;;;;;;;12.52;9.85;;;;;;;;;;5139257;28;20043;-73
2022/04/23 05:58:06;;;;;;;12.65;10.55;;;;;;;;;;5119744;28;20036;-72
2022/04/23 06:00:32;;;;;;;11.38;9.55;;;;;;;;;;5105729;28;20040;-73
2022/04/23 06:02:58;;;;;;;13.27;9.98;;;;;;;;;;5135055;28;20044;-73
2022/04/23 06:05:24;;;;;;;12.13;9.95;;;;;;;;;;5135664;28;20044;-72
2022/04/23 06:07:50;;;;;;;11.93;10.07;;;;;;;;;;5136165;28;20043;-74
2022/04/23 06:10:17;;;;;;;12.27;10.43;;;;;;;;;;5138259;28;20054;-73
2022/04/23 06:12:43;;;;;;;11.70;10.27;;;;;;;;;;5129637;28;20101;-74
2022/04/23 06:15:09;;;;;;;14.43;10.43;;;;;;;;;;5138441;28;20099;-73
2022/04/23 06:17:35;;;;;;;11.15;9.93;;;;;;;;;;5138589;28;20069;-73
2022/04/23 06:20:02;;;;;;;15.30;8.60;;;;;;;;;;5135154;28;20054;-74
2022/04/23 06:22:28;;;;;;;15.80;9.77;;;;;;;;;;5121267;28;20508;-73
2022/04/23 06:24:54;;;;;;;13.23;10.40;;;;;;;;;;5097956;28;20516;-73
2022/04/23 06:27:20;;;;;;;12.65;9.98;;;;;;;;;;5133560;28;20050;-73
2022/04/23 06:29:46;;;;;;;13.88;9.80;;;;;;;;;;5137281;28;20106;-74
2022/04/23 06:32:12;;;;;;;13.13;10.32;;;;;;;;;;5118874;28;20127;-73
2022/04/23 06:34:39;;;;;;;12.95;10.95;;;;;;;;;;5139578;28;20076;-72
2022/04/23 06:37:05;;;;;;;13.73;10.20;;;;;;;;;;5137839;28;20046;-72
2022/04/23 06:39:31;;;;;;;13.30;9.98;;;;;;;;;;5137113;28;20322;-73
2022/04/23 06:41:57;;;;;;;12.40;10.10;;;;;;;;;;5133102;28;20131;-73
2022/04/23 06:44:24;;;;;;;11.07;9.82;;;;;;;;;;5126253;28;20043;-74
2022/04/23 06:46:50;;;;;;;13.20;9.82;;;;;;;;;;5122252;28;20058;-73
2022/04/23 06:49:16;;;;;;;13.30;10.32;;;;;;;;;;5120661;28;20052;-73
2022/04/23 06:51:43;;;;;;;12.05;9.80;;;;;;;;;;5117786;28;20533;-73
2022/04/23 06:54:09;;;;;;;13.20;9.77;;;;;;;;;;5103276;28;20122;-73
2022/04/23 06:56:36;;;;;;;11.57;10.27;;;;;;;;;;5107485;28;20048;-72
2022/04/23 06:59:04;;;;;;;16.92;11.00;;;;;;;;;;5122510;28;20051;-73
2022/04/23 07:01:30;;;;;;;15.27;10.73;;;;;;;;;;5121799;28;20055;-72
2022/04/23 07:03:56;;;;;;;15.68;11.32;;;;;;;;;;5122978;28;20035;-73
2022/04/23 07:06:22;;;;;;;13.07;10.80;;;;;;;;;;5104826;28;20090;-73
2022/04/23 07:08:48;;;;;;;12.57;10.05;;;;;;;;;;5122987;28;20050;-73
2022/04/23 07:11:14;;;;;;;14.48;11.02;;;;;;;;;;5122291;28;20047;-72
2022/04/23 07:13:40;;;;;;;12.77;10.20;;;;;;;;;;5121267;28;20036;-72
2022/04/23 07:16:06;;;;;;;13.65;9.70;;;;;;;;;;5120960;28;20555;-72
2022/04/23 07:18:32;;;;;;;13.15;10.27;;;;;;;;;;5122820;28;20047;-73
2022/04/23 07:20:59;;;;;;;13.35;9.55;;;;;;;;;;5120493;28;20050;-73
2022/04/23 07:26:11;;;;;;;11.38;9.32;;;;;;;;;;5118853;28;20051;-73
2022/04/23 07:28:37;;;;;;;13.93;8.90;;;;;;;;;;5103431;28;20044;-73
2022/04/23 07:31:03;;;;;;;13.60;9.05;;;;;;;;;;5118047;28;20149;-74
2022/04/23 07:39:03;;;;;;;11.18;8.00;;;;;;;;;;5039775;28;20050;-74
2022/04/23 07:41:29;;;;;;;18.85;8.95;;;;;;;;;;5059545;28;20064;-73
2022/04/23 07:43:56;;;;;;;19.25;9.02;;;;;;;;;;5050621;28;20101;-73
2022/04/23 07:46:22;;;;;;;11.00;8.10;;;;;;;;;;5038811;28;20458;-73
2022/04/23 07:48:48;;;;;;;14.75;8.68;;;;;;;;;;5038621;28;20041;-73
2022/04/23 07:51:16;;;;;;;16.63;8.80;;;;;;;;;;5035065;28;20080;-73
2022/04/23 07:53:42;;;;;;;11.40;8.48;;;;;;;;;;5028649;28;20057;-72
2022/04/23 07:56:08;;;;;;;14.38;8.75;;;;;;;;;;5036150;28;20037;-73
2022/04/23 07:58:35;;;;;;;11.57;8.55;;;;;;;;;;5020424;28;20534;-73
2022/04/23 08:01:01;;;;;;;15.63;8.43;;;;;;;;;;5020649;28;20061;-73
2022/04/23 08:03:28;;;;;;;14.43;9.05;;;;;;;;;;5038001;28;20157;-73
2022/04/23 08:05:54;;;;;;;12.73;8.93;;;;;;;;;;5034850;28;20099;-73
2022/04/23 08:08:23;;;;;;;12.82;8.30;;;;;;;;;;5037004;28;20080;-73
2022/04/23 08:10:49;;;;;;;21.55;8.90;;;;;;;;;;5037872;28;20527;-73
2022/04/23 08:13:16;;;;;;;17.02;8.98;;;;;;;;;;5072236;28;20043;-73
2022/04/23 08:15:42;;;;;;;17.52;9.52;;;;;;;;;;5114858;28;20102;-73
2022/04/23 08:18:08;;;;;;;16.05;9.05;;;;;;;;;;5119792;28;20048;-73
2022/04/23 08:20:34;;;;;;;11.73;9.23;;;;;;;;;;5115268;28;20480;-74
2022/04/23 08:23:02;;;;;;;10.82;8.65;;;;;;;;;;5119736;28;20443;-73
2022/04/23 08:25:28;;;;;;;12.90;9.45;;;;;;;;;;5118269;28;20054;-72
2022/04/23 08:30:34;;;;;;;12.25;9.88;;;;;;;;;;5100488;28;20039;-72
2022/04/23 08:30:41;;;;;;;11.18;8.80;;;;;;;;;;5113713;28;20455;-74
2022/04/23 08:33:08;;;;;;;20.00;9.10;;;;;;;;;;5103695;28;20055;-73
2022/04/23 08:35:34;;;;;;;12.93;9.20;;;;;;;;;;5113396;28;20525;-71
2022/04/23 08:38:00;;;;;;;13.43;8.70;;;;;;;;;;5115163;28;20050;-73
2022/04/23 08:40:31;;;;;;;17.15;9.85;;;;;;;;;;5116497;28;20130;-73
2022/04/23 08:42:57;;;;;;;15.63;9.90;;;;;;;;;;5095984;28;20038;-73
2022/04/23 08:45:24;;;;;;;12.43;9.02;;;;;;;;;;5096278;28;21659;-72
2022/04/23 08:47:50;;;;;;;13.45;9.40;;;;;;;;;;5115045;28;20055;-73
2022/04/23 08:50:20;;;;;;;15.65;8.65;;;;;;;;;;5087353;28;20428;-73
2022/04/23 08:52:52;;;;;;;17.08;9.27;;;;;;;;;;5112174;28;20047;-73
2022/04/23 08:55:19;;;;;;;18.70;9.40;;;;;;;;;;5116310;28;20715;-73
2022/04/23 08:57:45;;;;;;;11.60;8.43;;;;;;;;;;5115258;28;20046;-73
2022/04/23 09:00:15;;;;;;;18.42;9.18;;;;;;;;;;5096095;28;20032;-73
2022/04/23 09:02:42;;;;;;;19.02;9.23;;;;;;;;;;5081691;28;20107;-72
2022/04/23 09:05:08;;;;;;;13.13;9.35;;;;;;;;;;5112026;28;20071;-73
2022/04/23 09:07:34;;;;;;;12.60;8.52;;;;;;;;;;5093126;28;20040;-72
2022/04/23 09:10:01;;;;;;;15.13;8.48;;;;;;;;;;5116247;28;20043;-71
2022/04/23 09:12:28;;;;;;;16.83;8.77;;;;;;;;;;5112237;28;20032;-73
2022/04/23 09:15:04;;;;;;;14.77;9.27;;;;;;;;;;5090928;28;20039;-72
2022/04/23 09:25:44;;;;;;;21.88;9.68;;;;;;;;;;5100854;28;20051;-73
2022/04/23 09:28:14;;;;;;;12.73;8.40;;;;;;;;;;5113024;28;20043;-73
2022/04/23 09:30:40;;;;;;;15.90;9.35;;;;;;;;;;5112052;28;20048;-73
2022/04/23 09:33:06;;;;;;;13.18;8.90;;;;;;;;;;5089826;28;20097;-73
2022/04/23 09:35:32;;;;;;;11.65;9.43;;;;;;;;;;5094620;28;20056;-74
2022/04/23 09:38:14;;;;;;;13.23;8.85;;;;;;;;;;5096399;28;20502;-73
2022/04/23 09:40:40;;;;;;;12.30;8.90;;;;;;;;;;5094452;28;20047;-72
2022/04/23 09:43:09;;;;;;;13.23;9.13;;;;;;;;;;5096496;28;20501;-73
2022/04/23 09:45:39;;;;;;;11.52;8.00;;;;;;;;;;5087271;28;20053;-73
2022/04/23 09:48:15;;;;;;;11.95;8.55;;;;;;;;;;5076938;28;20052;-73
2022/04/23 09:50:41;;;;;;;16.10;8.95;;;;;;;;;;5093608;28;20073;-74
2022/04/23 09:53:08;;;;;;;11.30;9.57;;;;;;;;;;5097444;28;20383;-74
2022/04/23 09:55:34;;;;;;;11.10;9.57;;;;;;;;;;5092654;28;21573;-73
2022/04/23 09:58:01;;;;;;;11.77;9.10;;;;;;;;;;5093614;28;20044;-73
2022/04/23 10:00:27;;;;;;;12.95;8.65;;;;;;;;;;5095762;28;20040;-74
2022/04/23 10:02:56;;;;;;;13.00;8.45;;;;;;;;;;5097347;28;20048;-74
2022/04/23 10:05:22;;;;;;;10.43;8.65;;;;;;;;;;5096612;28;20048;-73
2022/04/23 10:07:50;;;;;;;13.13;8.70;;;;;;;;;;5095568;28;20037;-74
2022/04/23 10:10:17;;;;;;;12.88;8.43;;;;;;;;;;5092215;28;20051;-75
2022/04/23 10:12:45;;;;;;;14.60;8.50;;;;;;;;;;5079718;28;20125;-74
2022/04/23 10:15:11;;;;;;;10.80;7.53;;;;;;;;;;5096557;28;20130;-73
2022/04/23 10:17:39;;;;;;;14.70;8.75;;;;;;;;;;5061216;28;20063;-74
2022/04/23 10:20:09;;;;;;;14.15;7.68;;;;;;;;;;5096280;28;20086;-75
2022/04/23 10:22:39;;;;;;;16.77;8.48;;;;;;;;;;5100715;28;20048;-74
2022/04/23 10:25:05;;;;;;;11.55;8.10;;;;;;;;;;5081680;28;20063;-73
2022/04/23 10:27:32;;;;;;;11.65;7.88;;;;;;;;;;5089673;28;20525;-73
2022/04/23 10:30:03;;;;;;;12.07;8.27;;;;;;;;;;5083848;28;20557;-74
2022/04/23 10:32:29;;;;;;;;;;;;;;;;;;5109318;28;20063;-72
2022/04/23 10:34:58;;;;;;;12.30;9.15;;;;;;;;;;5120981;28;19980;-73
2022/04/23 10:37:27;;;;;;;13.20;8.25;;;;;;;;;;5114393;28;20036;-73
2022/04/23 10:39:54;;;;;;;13.10;8.75;;;;;;;;;;5115240;28;20047;-73
2022/04/23 10:42:21;;;;;;;13.20;9.07;;;;;;;;;;5120680;28;20051;-75
2022/04/23 10:44:48;;;;;;;10.93;8.30;;;;;;;;;;5120837;28;20124;-73
2022/04/23 10:47:35;;;;;;;12.30;8.50;;;;;;;;;;5120466;28;20082;-73
2022/04/23 10:50:27;;;;;;;13.07;8.15;;;;;;;;;;5117926;28;20046;-73
2022/04/23 10:52:54;;;;;;;12.85;9.27;;;;;;;;;;5113431;28;20100;-74
2022/04/23 10:55:21;;;;;;;10.27;9.00;;;;;;;;;;5122100;28;20547;-73
2022/04/23 10:57:47;;;;;;;10.75;8.57;;;;;;;;;;5119351;28;20043;-73
2022/04/23 11:00:16;;;;;;;13.15;9.30;;;;;;;;;;5100392;28;20047;-74
2022/04/23 11:02:46;;;;;;;17.05;8.88;;;;;;;;;;5117469;28;20054;-73
2022/04/23 11:13:49;;;;;;;10.88;8.55;;;;;;;;;;5094243;28;20056;-73
2022/04/23 11:16:16;;;;;;;15.38;9.15;;;;;;;;;;5113221;28;20055;-74
2022/04/23 11:18:43;;;;;;;11.95;10.20;;;;;;;;;;5110004;28;20059;-74
2022/04/23 11:21:12;;;;;;;12.82;10.02;;;;;;;;;;5115768;28;20043;-74
2022/04/23 11:23:45;;;;;;;12.48;9.55;;;;;;;;;;5120819;28;20490;-73
2022/04/23 11:26:14;;;;;;;10.35;8.90;;;;;;;;;;5101256;28;20052;-74
2022/04/23 11:28:40;;;;;;;11.48;8.10;;;;;;;;;;5101795;28;20509;-73
2022/04/23 11:31:10;;;;;;;10.63;9.30;;;;;;;;;;5106433;28;20127;-74
2022/04/23 11:33:36;;;;;;;15.75;8.40;;;;;;;;;;5121414;28;20048;-74
2022/04/23 11:36:04;;;;;;;12.18;8.50;;;;;;;;;;5107987;28;20065;-74
2022/04/23 11:38:30;;;;;;;11.77;8.70;;;;;;;;;;5122084;28;20062;-74
2022/04/23 11:40:56;;;;;;;10.23;7.80;;;;;;;;;;5122745;28;20131;-73
2022/04/23 11:43:29;;;;;;;13.60;7.72;;;;;;;;;;5123228;28;20089;-74
2022/04/23 11:46:00;;;;;;;14.95;8.15;;;;;;;;;;5095398;28;20055;-74
2022/04/23 11:48:26;;;;;;;11.18;7.85;;;;;;;;;;5116752;28;20066;-74
2022/04/23 11:50:52;;;;;;;13.00;7.05;;;;;;;;;;5122596;28;20042;-73
2022/04/23 11:53:19;;;;;;;14.95;7.32;;;;;;;;;;5113460;28;20048;-74
2022/04/23 11:55:49;;;;;;;10.73;6.53;;;;;;;;;;5122996;28;20043;-74
2022/04/23 11:58:20;;;;;;;18.38;8.02;;;;;;;;;;5102917;28;20043;-73
2022/04/23 12:00:47;;;;;;;11.55;7.20;;;;;;;;;;5102547;28;20126;-73
2022/04/23 12:03:13;;;;;;;12.45;7.15;;;;;;;;;;5120157;28;20055;-74
2022/04/23 12:05:39;;;;;;;10.40;7.15;;;;;;;;;;5119964;28;20093;-73
2022/04/23 12:08:06;;;;;;;13.20;6.95;;;;;;;;;;5097980;28;20050;-74
2022/04/23 12:10:32;;;;;;;9.18;6.65;;;;;;;;;;5121512;28;20071;-73
2022/04/23 12:13:08;;;;;;;8.70;6.35;;;;;;;;;;5113454;28;20040;-73
2022/04/23 12:15:36;;;;;;;10.45;6.47;;;;;;;;;;5068686;28;20040;-73
2022/04/23 12:18:14;;;;;;;9.32;7.13;;;;;;;;;;5118601;28;20126;-74
2022/04/23 12:20:42;;;;;;;13.13;6.90;;;;;;;;;;5122652;28;20496;-74
2022/04/23 12:23:08;;;;;;;10.95;7.32;;;;;;;;;;5085169;28;20040;-73
2022/04/23 12:25:35;;;;;;;15.80;6.90;;;;;;;;;;5120565;28;20573;-75
2022/04/23 12:40:44;;;;;;;11.80;6.72;;;;;;;;;;5122754;28;20521;-74
2022/04/23 12:42:12;;;;;;;11.10;6.22;;;;;;;;;;5093894;28;20043;-73
2022/04/23 12:44:42;;;;;;;12.68;6.07;;;;;;;;;;5099613;28;20097;-73
2022/04/23 12:47:19;;;;;;;11.95;5.43;;;;;;;;;;5099364;28;20036;-74
2022/04/23 12:49:46;;;;;;;10.57;6.20;;;;;;;;;;5080547;28;20057;-74
2022/04/23 12:52:14;;;;;;;9.27;6.05;;;;;;;;;;5078508;28;20044;-74
2022/04/23 12:54:41;;;;;;;9.95;5.35;;;;;;;;;;5097515;28;20060;-74
2022/04/23 12:57:16;;;;;;;11.60;5.75;;;;;;;;;;5100356;28;20509;-74
2022/04/23 12:59:42;;;;;;;8.13;6.50;;;;;;;;;;5099282;28;20048;-74
2022/04/23 13:02:09;;;;;;;9.23;6.28;;;;;;;;;;5099121;28;20048;-74
2022/04/23 13:04:37;;;;;;;9.45;5.90;;;;;;;;;;5081861;28;20048;-74
2022/04/23 13:09:48;;;;;;;10.30;5.22;;;;;;;;;;5083405;28;20043;-73
2022/04/23 13:12:14;;;;;;;9.57;5.28;;;;;;;;;;5097905;28;20093;-73
2022/04/23 13:14:41;;;;;;;11.00;5.57;;;;;;;;;;5098731;28;20059;-76
2022/04/23 13:17:07;;;;;;;19.80;6.18;;;;;;;;;;5097795;28;20406;-74
2022/04/23 13:19:34;;;;;;;14.30;6.00;;;;;;;;;;5100267;28;20044;-74
2022/04/23 13:22:01;;;;;;;9.18;5.82;;;;;;;;;;5100920;28;20096;-74
2022/04/23 13:24:27;;;;;;;11.55;6.18;;;;;;;;;;5083117;28;20093;-75
2022/04/23 13:26:53;;;;;;;14.23;6.25;;;;;;;;;;5103079;28;20040;-74
2022/04/23 13:29:20;;;;;;;15.95;6.05;;;;;;;;;;5086438;28;20512;-74
2022/04/23 13:31:46;;;;;;;12.35;6.72;;;;;;;;;;5092497;28;20063;-74
2022/04/23 13:34:12;;;;;;;8.30;6.60;;;;;;;;;;5102170;28;20500;-74
2022/04/23 13:36:38;;;;;;;9.38;6.70;;;;;;;;;;5109421;28;20040;-76
2022/04/23 13:39:04;;;;;;;11.88;6.75;;;;;;;;;;5085148;28;20055;-74
2022/04/23 13:41:30;;;;;;;25.13;6.82;;;;;;;;;;5106526;28;20052;-74
2022/04/23 13:43:58;;;;;;;16.02;6.50;;;;;;;;;;5114859;28;20048;-74
2022/04/23 13:46:24;;;;;;;13.57;7.75;;;;;;;;;;5118123;28;20417;-73
2022/04/23 13:48:50;;;;;;;11.23;5.50;;;;;;;;;;5113976;28;20048;-74
2022/04/23 13:51:16;;;;;;;8.52;4.97;;;;;;;;;;5111956;28;20088;-73
2022/04/23 13:53:42;;;;;;;12.40;5.05;;;;;;;;;;5115087;28;20061;-74
2022/04/23 13:56:08;;;;;;;9.30;5.28;;;;;;;;;;5109423;28;20039;-74
2022/04/23 13:58:34;;;;;;;11.10;5.32;;;;;;;;;;5109114;28;20120;-74
2022/04/23 14:01:01;;;;;;;9.10;5.20;;;;;;;;;;5109522;28;20047;-74
2022/04/23 14:11:41;;;;;;;8.60;4.60;;;;;;;;;;5107055;28;20493;-74
2022/04/23 14:14:07;;;;;;;7.70;4.50;;;;;;;;;;5122021;28;20130;-74
2022/04/23 14:16:33;;;;;;;8.55;4.55;;;;;;;;;;5119886;28;20044;-74
2022/04/23 14:18:59;;;;;;;7.10;4.30;;;;;;;;;;5119892;28;20130;-75
2022/04/23 14:21:25;;;;;;;8.63;4.53;;;;;;;;;;5120426;28;20401;-74
2022/04/23 14:23:51;;;;;;;11.32;4.35;;;;;;;;;;5119609;28;20080;-73
2022/04/23 14:26:18;;;;;;;9.05;4.05;;;;;;;;;;5121736;28;20043;-74
2022/04/23 14:28:44;;;;;;;7.63;3.92;;;;;;;;;;5120485;28;20047;-76
2022/04/23 14:31:10;;;;;;;8.73;3.80;;;;;;;;;;5122576;28;20048;-74
2022/04/23 14:33:36;;;;;;;15.90;4.10;;;;;;;;;;5120460;28;20136;-75
2022/04/23 14:36:03;;;;;;;7.72;4.53;;;;;;;;;;5121882;28;20039;-74
2022/04/23 14:38:29;;;;;;;9.13;4.40;;;;;;;;;;5120731;28;20050;-74
2022/04/23 14:40:55;;;;;;;8.15;4.35;;;;;;;;;;5107427;28;20040;-74
2022/04/23 14:43:22;;;;;;;13.15;4.47;;;;;;;;;;5108738;28;20031;-73
2022/04/23 14:45:48;;;;;;;6.60;3.60;;;;;;;;;;5118759;28;20070;-74
2022/04/23 14:48:14;;;;;;;6.55;4.10;;;;;;;;;;5086447;28;20054;-73
2022/04/23 14:53:25;;;;;;;9.65;4.25;;;;;;;;;;5105922;28;20510;-74
2022/04/23 14:55:51;;;;;;;10.25;4.50;;;;;;;;;;5116309;28;20507;-74
2022/04/23 14:58:17;;;;;;;9.55;4.15;;;;;;;;;;5120095;28;20058;-74
2022/04/23 15:00:43;;;;;;;14.77;4.60;;;;;;;;;;5124144;28;20107;-74
2022/04/23 15:03:10;;;;;;;12.55;4.55;;;;;;;;;;5121329;28;20039;-73
2022/04/23 15:05:36;;;;;;;6.38;4.10;;;;;;;;;;5121104;28;21068;-74
2022/04/23 15:08:02;;;;;;;9.30;4.32;;;;;;;;;;5115905;28;20047;-75
2022/04/23 15:10:28;;;;;;;9.13;4.60;;;;;;;;;;5103288;28;20082;-74
2022/04/23 15:12:55;;;;;;;11.93;4.30;;;;;;;;;;5109911;28;20071;-73
2022/04/23 15:15:21;;;;;;;7.18;3.65;;;;;;;;;;5114641;28;20048;-74